Perry, MO (63462)

12:04 PM CDT on May 29, 2017 (GMT -0500)
Sharps pl | | Change Station
Active Advisory: Flood Warning

Elev 698 ft 39.44 °N, 91.71 °W | Updated 4 seconds ago

Partly Cloudy
Partly Cloudy
73.2 °F
Feels Like 76 °F
N
5.6
Wind Variable Wind from WNW
Gusts 11.9 mph

Today
High -- | Low -- °F
--% Chance of Precip.
Yesterday
High -- | Low -- °F
Precip. -- in
Pressure 29.96 in
Visibility 7.0 miles
Clouds Overcast 10000 ft
Heat Index 76 °F
Dew Point 59 °F
Humidity 61%
Rainfall 0.00 in
Snow Depth Not available.
5:42 AM 8:25 PM
Waxing Crescent, 21% visible
METAR KHAE 291655Z AUTO 28012G15KT 7SM OVC100 24/05 A2996 RMK AO2
Pressure 29.96 in
Visibility 7.0 miles
Clouds Overcast 10000 ft
Heat Index 76 °F
Dew Point 59 °F
Humidity 61%
Rainfall 0.00 in
Snow Depth Not available.
5:42 AM 8:25 PM
Waxing Crescent, 21% visible
METAR KHAE 291655Z AUTO 28012G15KT 7SM OVC100 24/05 A2996 RMK AO2

Get Your Daily Forecast Email!

Thanks for signing up!

Be on the lookout for a verification email in your inbox.

You'll start receiving severe weather alerts in your inbox..

×

10-Day Weather Forecast

Almanac

Astronomy

May. 29, 2017 Rise Set
Actual Time
Civil Twilight
Nautical Twilight
Astronomical Twilight
Moon
Length of Visible Light
Length of Day
Tomorrow will be .
, % of the Moon is Illuminated

Today's Extremes

State Highs State Lows

Community

WunderPhotos

Category 6

Welcome to Category 6. This is the collective home for Weather Underground's featured writeups by Dr. Jeff Masters (right), Bob Henson (left), Chris Burt, and other regular contributors.

Nearby

Air Quality

  Air Quality AQ Index Pollutant
Not available.

Snow Depth

Station Depth Elevation

Earthquake Activity

City Distance Mag. Time & Date
Minimum magnitude displayed is 2.5.

Coastal Water Temperatures

Place Temperature

Stations

Nearby Weather Stations

Station Location Temp. Windchill Dew Point Humidity Wind Precip. Elev Updated Type
                   

Watches & Warnings

Flood Warning
Issued: 10:39 AM CDT May. 29, 2017 – National Weather Service

The Flood Warning continues for
the Mississippi River at Saverton ld22
* until further notice.
* At 10:00 am Monday the stage was 16.8 feet.
* Flood stage is 16.0 feet.
* Minor flooding is forecast.
* The river is forecast to crest near 19.0 feet by early Sunday
morning.

                   Fld latest 7 a.M. Forecast
location stg obs stg 05/30 05/31 06/01 06/02 06/03

Mississippi River
Saverton ld22 16.0 16.78 17.1 17.6 18.0 18.5 18.8




Lat... Lon 3967 9135 3974 9121 3970 9114 3952 9097
      3945 9111